createdAt,value
2017-12-13T00:01:12.180Z,6.80
2017-12-13T00:03:39.674Z,6.12
2017-12-13T00:06:06.752Z,6.78
2017-12-13T00:08:33.827Z,8.15
2017-12-13T00:11:01.460Z,8.13
2017-12-13T00:13:29.732Z,11.35
2017-12-13T00:15:58.980Z,6.12
2017-12-13T00:18:27.165Z,6.70
2017-12-13T00:20:54.872Z,6.80
2017-12-13T00:23:23.417Z,8.13
2017-12-13T00:25:50.427Z,7.15
2017-12-13T00:28:19.188Z,6.05
2017-12-13T00:30:46.374Z,6.55
2017-12-13T00:33:15.446Z,7.72
2017-12-13T00:35:45.649Z,6.97
2017-12-13T00:38:15.395Z,6.93
2017-12-13T00:40:43.265Z,7.37
2017-12-13T00:43:10.591Z,6.55
2017-12-13T00:45:37.739Z,6.00
2017-12-13T00:48:04.600Z,6.32
2017-12-13T00:50:34.023Z,6.40
2017-12-13T00:53:00.944Z,6.60
2017-12-13T00:55:28.256Z,7.00
2017-12-13T00:57:55.504Z,6.65
2017-12-13T01:00:22.363Z,8.57
2017-12-13T01:02:49.275Z,6.70
2017-12-13T01:05:16.208Z,7.43
2017-12-13T01:07:43.051Z,7.40
2017-12-13T01:10:09.976Z,7.12
2017-12-13T01:12:36.841Z,6.18
2017-12-13T01:15:03.767Z,8.13
2017-12-13T01:17:30.697Z,6.90
2017-12-13T01:19:57.607Z,6.53
2017-12-13T01:22:24.519Z,6.47
2017-12-13T01:24:51.428Z,7.05
2017-12-13T01:27:19.063Z,7.80
2017-12-13T01:29:45.915Z,7.78
2017-12-13T01:32:12.853Z,6.15
2017-12-13T01:34:39.712Z,6.35
2017-12-13T01:37:06.695Z,7.28
2017-12-13T01:39:33.549Z,8.48
2017-12-13T01:42:00.473Z,6.53
2017-12-13T01:44:27.391Z,7.35
2017-12-13T01:46:54.992Z,6.97
2017-12-13T01:49:21.960Z,6.80
2017-12-13T01:51:48.860Z,7.28
2017-12-13T01:54:16.579Z,6.10
2017-12-13T01:56:43.544Z,7.03
2017-12-13T01:59:10.398Z,6.50
2017-12-13T02:01:39.106Z,7.05
2017-12-13T02:04:07.181Z,8.98
2017-12-13T02:06:35.151Z,6.60
2017-12-13T02:09:03.120Z,7.05
2017-12-13T02:11:31.401Z,6.18
2017-12-13T02:14:00.087Z,6.93
2017-12-13T02:16:28.156Z,7.03
2017-12-13T02:18:56.921Z,11.00
2017-12-13T02:21:25.235Z,6.82
2017-12-13T02:23:53.144Z,6.47
2017-12-13T02:26:21.172Z,6.05
2017-12-13T02:28:49.184Z,5.30
2017-12-13T02:31:17.207Z,6.45
2017-12-13T02:33:45.965Z,5.32
2017-12-13T02:36:13.460Z,6.65
2017-12-13T02:38:42.117Z,5.75
2017-12-13T02:41:08.964Z,5.80
2017-12-13T02:43:35.883Z,6.87
2017-12-13T02:46:02.732Z,6.72
2017-12-13T02:48:29.652Z,6.03
2017-12-13T02:50:56.514Z,8.68
2017-12-13T02:53:23.430Z,5.40
2017-12-13T02:55:50.452Z,5.85
2017-12-13T02:58:17.398Z,6.22
2017-12-13T03:00:45.091Z,5.57
2017-12-13T03:03:11.959Z,6.03
2017-12-13T03:05:38.849Z,5.30
2017-12-13T03:08:06.579Z,7.07
2017-12-13T03:10:33.544Z,5.90
2017-12-13T03:13:00.460Z,5.75
2017-12-13T03:15:27.313Z,5.57
2017-12-13T03:17:54.228Z,6.05
2017-12-13T03:20:21.246Z,5.62
2017-12-13T03:22:48.861Z,7.40
2017-12-13T03:25:15.816Z,5.32
2017-12-13T03:27:42.667Z,6.10
2017-12-13T03:30:09.611Z,6.07
2017-12-13T03:32:36.488Z,5.35
2017-12-13T03:35:05.973Z,5.43
2017-12-13T03:37:34.564Z,5.43
2017-12-13T03:40:01.446Z,5.30
2017-12-13T03:42:28.383Z,7.15
2017-12-13T03:44:55.308Z,5.15
2017-12-13T03:47:22.920Z,5.68
2017-12-13T03:49:49.866Z,4.87
2017-12-13T03:52:16.732Z,5.12
2017-12-13T03:54:43.588Z,5.10
2017-12-13T03:57:10.515Z,5.18
2017-12-13T03:59:37.444Z,5.12
2017-12-13T04:02:04.306Z,6.70
2017-12-13T04:04:32.372Z,4.90
2017-12-13T04:06:59.358Z,5.60
2017-12-13T04:09:26.437Z,7.32
2017-12-13T04:11:53.415Z,6.68
2017-12-13T04:14:20.508Z,7.00
2017-12-13T04:16:48.418Z,8.80
2017-12-13T04:19:15.355Z,4.87
2017-12-13T04:21:42.415Z,5.70
2017-12-13T04:24:09.424Z,5.35
2017-12-13T04:26:36.439Z,6.68
2017-12-13T04:29:03.514Z,8.52
2017-12-13T04:31:30.480Z,9.77
2017-12-13T04:33:58.247Z,8.00
2017-12-13T04:36:25.372Z,7.87
2017-12-13T04:38:52.259Z,6.05
2017-12-13T04:41:19.208Z,6.20
2017-12-13T04:43:46.148Z,6.85
2017-12-13T04:46:13.152Z,5.55
2017-12-13T04:48:40.224Z,6.47
2017-12-13T04:51:07.200Z,13.45
2017-12-13T04:53:34.256Z,6.55
2017-12-13T04:56:01.108Z,6.28
2017-12-13T04:58:28.036Z,6.03
2017-12-13T05:00:55.415Z,8.55
2017-12-13T05:03:22.332Z,4.90
2017-12-13T05:05:49.283Z,6.55
2017-12-13T05:08:16.216Z,5.30
2017-12-13T05:10:43.236Z,7.22
2017-12-13T05:13:10.277Z,6.28
2017-12-13T05:15:37.151Z,7.22
2017-12-13T05:18:04.803Z,7.85
2017-12-13T05:20:31.739Z,5.07
2017-12-13T05:22:58.681Z,6.55
2017-12-13T05:25:26.679Z,6.53
2017-12-13T05:28:07.112Z,11.05
2017-12-13T05:30:34.807Z,7.07
2017-12-13T05:33:01.662Z,6.90
2017-12-13T05:35:28.766Z,5.05
2017-12-13T05:37:55.687Z,6.35
2017-12-13T05:40:25.374Z,5.93
2017-12-13T05:42:54.234Z,5.47
2017-12-13T05:45:21.268Z,7.87
2017-12-13T05:47:48.191Z,5.20
2017-12-13T05:50:16.999Z,9.38
2017-12-13T05:52:44.101Z,4.80
2017-12-13T05:55:10.956Z,6.32
2017-12-13T05:57:37.812Z,10.70
2017-12-13T06:00:07.456Z,5.03
2017-12-13T06:02:34.308Z,6.25
2017-12-13T06:05:01.996Z,6.60
2017-12-13T06:07:31.913Z,8.02
2017-12-13T06:09:59.675Z,4.62
2017-12-13T06:12:33.751Z,8.55
2017-12-13T06:15:04.450Z,5.90
2017-12-13T06:17:39.274Z,7.90
2017-12-13T06:20:12.387Z,5.57
2017-12-13T06:22:43.129Z,6.22
2017-12-13T06:25:18.857Z,5.32
2017-12-13T06:27:46.531Z,8.32
2017-12-13T06:30:13.560Z,5.35
2017-12-13T06:32:41.540Z,7.15
2017-12-13T06:35:14.940Z,7.07
2017-12-13T06:37:49.264Z,6.22
2017-12-13T06:40:17.071Z,6.30
2017-12-13T06:42:44.509Z,5.62
2017-12-13T06:45:11.704Z,7.57
2017-12-13T06:47:51.314Z,5.20
2017-12-13T06:50:24.904Z,6.35
2017-12-13T06:52:59.558Z,5.78
2017-12-13T06:55:32.309Z,11.32
2017-12-13T06:58:07.013Z,5.80
2017-12-13T07:00:42.367Z,9.77
2017-12-13T07:03:11.139Z,9.52
2017-12-13T07:05:38.645Z,10.98
2017-12-13T07:08:21.385Z,9.05
2017-12-13T07:11:00.585Z,6.72
2017-12-13T07:13:33.277Z,9.75
2017-12-13T07:16:01.066Z,13.48
2017-12-13T07:18:29.072Z,6.80
2017-12-13T07:21:05.308Z,11.30
2017-12-13T07:23:45.267Z,6.60
2017-12-13T07:26:13.283Z,7.87
2017-12-13T07:28:40.348Z,7.15
2017-12-13T07:31:07.398Z,9.90
2017-12-13T07:33:34.552Z,6.10
2017-12-13T07:36:01.733Z,5.00
2017-12-13T07:38:29.070Z,6.03
2017-12-13T07:40:56.978Z,5.95
2017-12-13T07:43:23.898Z,4.65
2017-12-13T07:45:51.592Z,5.60
2017-12-13T07:48:20.631Z,4.75
2017-12-13T07:50:53.260Z,4.20
2017-12-13T07:53:26.379Z,5.18
2017-12-13T07:56:03.115Z,4.93
2017-12-13T07:58:30.365Z,4.62
2017-12-13T08:01:00.945Z,4.85
2017-12-13T08:03:27.943Z,4.78
2017-12-13T08:05:55.657Z,10.43
2017-12-13T08:08:23.520Z,5.37
2017-12-13T08:10:51.878Z,5.43
2017-12-13T08:13:18.928Z,4.65
2017-12-13T08:15:45.988Z,4.47
2017-12-13T08:18:13.455Z,7.80
2017-12-13T08:20:41.245Z,5.05
2017-12-13T08:23:09.569Z,6.87
2017-12-13T08:25:39.605Z,6.47
2017-12-13T08:28:17.346Z,4.85
2017-12-13T08:30:54.569Z,3.80
2017-12-13T08:33:30.586Z,4.32
2017-12-13T08:35:59.289Z,4.03
2017-12-13T08:38:35.129Z,3.53
2017-12-13T08:41:17.682Z,6.53
2017-12-13T08:43:45.062Z,4.18
2017-12-13T08:46:12.160Z,7.43
2017-12-13T08:48:39.267Z,4.82
2017-12-13T08:51:07.135Z,6.85
2017-12-13T08:53:44.016Z,4.05
2017-12-13T08:56:13.874Z,7.78
2017-12-13T08:58:47.897Z,4.45
2017-12-13T09:01:27.420Z,3.65
2017-12-13T09:04:10.614Z,4.32
2017-12-13T09:06:46.189Z,3.72
2017-12-13T09:09:18.914Z,7.22
2017-12-13T09:11:53.369Z,4.22
2017-12-13T09:14:37.843Z,4.60
2017-12-13T09:17:05.919Z,3.70
2017-12-13T09:19:32.869Z,3.75
2017-12-13T09:21:59.964Z,4.75
2017-12-13T09:24:27.006Z,6.45
2017-12-13T09:26:54.064Z,4.87
2017-12-13T09:29:33.594Z,3.45
2017-12-13T09:32:01.617Z,4.62
2017-12-13T09:34:29.753Z,3.12
2017-12-13T09:36:56.868Z,6.97
2017-12-13T09:39:23.884Z,3.43
2017-12-13T09:41:50.994Z,4.83
2017-12-13T09:44:17.896Z,2.85
2017-12-13T09:46:45.754Z,3.67
2017-12-13T09:49:13.578Z,2.93
2017-12-13T09:51:40.595Z,3.13
2017-12-13T09:54:07.580Z,2.60
2017-12-13T09:56:34.632Z,2.90
2017-12-13T09:59:01.655Z,2.93
2017-12-13T10:01:28.663Z,3.67
2017-12-13T10:03:55.819Z,6.80
2017-12-13T10:06:27.505Z,3.20
2017-12-13T10:08:54.532Z,2.73
2017-12-13T10:11:21.659Z,5.43
2017-12-13T10:13:48.684Z,3.77
2017-12-13T10:16:15.868Z,5.33
2017-12-13T10:18:43.746Z,3.13
2017-12-13T10:21:11.739Z,2.60
2017-12-13T10:23:56.487Z,3.70
2017-12-13T10:26:36.130Z,2.70
2017-12-13T10:29:04.109Z,2.73
2017-12-13T10:31:46.244Z,4.32
2017-12-13T10:34:14.182Z,2.80
2017-12-13T10:36:41.221Z,3.77
2017-12-13T10:39:08.316Z,3.40
2017-12-13T10:41:35.270Z,3.17
2017-12-13T10:44:02.275Z,3.63
2017-12-13T10:46:38.993Z,4.30
2017-12-13T10:49:06.638Z,3.80
2017-12-13T10:51:33.686Z,5.87
2017-12-13T10:54:00.763Z,5.27
2017-12-13T10:56:27.987Z,3.87
2017-12-13T10:58:57.472Z,3.60
2017-12-13T11:01:25.635Z,3.23
2017-12-13T11:03:53.545Z,4.37
2017-12-13T11:06:22.217Z,4.27
2017-12-13T11:08:50.092Z,3.40
2017-12-13T11:11:17.105Z,4.63
2017-12-13T11:13:44.827Z,3.40
2017-12-13T11:16:11.856Z,3.50
2017-12-13T11:18:38.879Z,4.65
2017-12-13T11:21:06.768Z,3.45
2017-12-13T11:23:37.378Z,3.70
2017-12-13T11:26:08.688Z,10.13
2017-12-13T11:28:35.667Z,3.53
2017-12-13T11:31:03.444Z,4.25
2017-12-13T11:33:31.641Z,3.35
2017-12-13T11:36:02.445Z,3.25
2017-12-13T11:38:31.451Z,4.00
2017-12-13T11:40:58.567Z,5.10
2017-12-13T11:43:33.615Z,3.78
2017-12-13T11:46:06.458Z,3.12
2017-12-13T11:48:34.594Z,2.92
2017-12-13T11:51:08.007Z,3.67
2017-12-13T11:53:40.735Z,10.85
2017-12-13T11:56:12.956Z,2.83
2017-12-13T11:58:49.425Z,3.15
2017-12-13T12:01:24.597Z,4.82
2017-12-13T12:04:01.543Z,2.95
2017-12-13T12:06:29.464Z,3.87
2017-12-13T12:08:56.620Z,5.65
2017-12-13T12:11:23.745Z,3.15
2017-12-13T12:13:50.705Z,4.15
2017-12-13T12:16:18.464Z,2.75
2017-12-13T12:18:45.584Z,6.53
2017-12-13T12:21:19.390Z,3.55
2017-12-13T12:23:47.182Z,2.40
2017-12-13T12:26:23.029Z,3.60
2017-12-13T12:28:53.205Z,2.17
2017-12-13T12:31:21.082Z,4.00
2017-12-13T12:33:51.579Z,4.87
2017-12-13T12:36:19.594Z,3.45
2017-12-13T12:38:53.625Z,4.70
2017-12-13T12:41:29.019Z,3.37
2017-12-13T12:44:01.157Z,2.45
2017-12-13T12:46:30.722Z,3.12
2017-12-13T12:49:00.400Z,3.62
2017-12-13T12:51:33.484Z,3.87
2017-12-13T12:54:06.235Z,3.85
2017-12-13T12:56:39.493Z,3.90
2017-12-13T12:59:06.811Z,3.95
2017-12-13T13:01:34.035Z,3.45
2017-12-13T13:04:01.731Z,3.47
2017-12-13T13:06:32.352Z,2.42
2017-12-13T13:08:59.959Z,4.37
2017-12-13T13:11:28.123Z,2.05
2017-12-13T13:13:59.073Z,2.50
2017-12-13T13:16:26.673Z,2.33
2017-12-13T13:18:53.880Z,2.40
2017-12-13T13:21:27.917Z,2.87
2017-12-13T13:23:55.128Z,2.70
2017-12-13T13:26:23.118Z,2.62
2017-12-13T13:28:50.341Z,5.50
2017-12-13T13:31:17.312Z,2.33
2017-12-13T13:33:44.330Z,3.60
2017-12-13T13:36:20.793Z,3.62
2017-12-13T13:38:54.038Z,6.05
2017-12-13T13:41:29.876Z,4.93
2017-12-13T13:44:12.864Z,2.58
2017-12-13T13:46:57.144Z,1.85
2017-12-13T13:49:30.371Z,2.70
2017-12-13T13:54:36.116Z,3.22
2017-12-13T13:57:03.336Z,2.28
2017-12-13T13:59:30.472Z,1.75
2017-12-13T14:01:58.489Z,4.30
2017-12-13T14:04:29.496Z,3.50
2017-12-13T14:06:57.784Z,2.35
2017-12-13T14:09:27.334Z,2.35
2017-12-13T14:12:05.233Z,2.20
2017-12-13T14:14:33.876Z,3.50
2017-12-13T14:17:06.809Z,3.37
2017-12-13T14:30:59.956Z,2.65
2017-12-13T14:33:42.294Z,2.42
2017-12-13T14:36:22.661Z,3.10
2017-12-13T14:39:06.649Z,2.55
2017-12-13T14:41:49.630Z,2.20
2017-12-13T14:44:30.175Z,3.80
2017-12-13T14:47:11.636Z,2.20
2017-12-13T14:49:50.977Z,3.08
2017-12-13T14:52:31.942Z,5.68
2017-12-13T14:55:08.598Z,4.22
2017-12-13T14:57:48.643Z,2.20
2017-12-13T15:00:24.952Z,2.78
2017-12-13T15:02:55.307Z,2.50
2017-12-13T15:05:32.943Z,2.05
2017-12-13T15:08:00.742Z,4.18
2017-12-13T15:10:28.626Z,2.50
2017-12-13T15:12:55.640Z,1.92
2017-12-13T15:15:23.428Z,2.30
2017-12-13T15:17:51.792Z,1.92
2017-12-13T15:20:19.003Z,2.10
2017-12-13T15:22:46.007Z,5.55
2017-12-13T15:25:13.868Z,1.62
2017-12-13T15:27:40.902Z,4.05
2017-12-13T15:30:08.477Z,2.12
2017-12-13T15:32:35.468Z,2.80
2017-12-13T15:35:03.986Z,2.85
2017-12-13T15:37:31.671Z,1.85
2017-12-13T15:40:05.552Z,4.00
2017-12-13T15:42:33.034Z,2.40
2017-12-13T15:45:00.296Z,2.45
2017-12-13T15:47:28.828Z,1.90
2017-12-13T15:49:56.981Z,4.53
2017-12-13T15:52:24.133Z,2.42
2017-12-13T15:54:51.463Z,2.42
2017-12-13T15:57:18.641Z,2.70
2017-12-13T15:59:57.641Z,2.33
2017-12-13T16:02:36.618Z,4.05
2017-12-13T16:05:17.933Z,2.50
2017-12-13T16:07:46.218Z,2.70
2017-12-13T16:10:15.771Z,3.45
2017-12-13T16:12:43.518Z,2.58
2017-12-13T16:15:11.326Z,2.70
2017-12-13T16:17:43.545Z,2.47
2017-12-13T16:20:23.395Z,3.15
2017-12-13T16:23:08.245Z,4.32
2017-12-13T16:25:50.866Z,6.25
2017-12-13T16:28:26.185Z,3.47
2017-12-13T16:30:56.126Z,4.15
2017-12-13T16:33:23.077Z,4.28
2017-12-13T16:35:52.024Z,3.62
2017-12-13T16:38:29.140Z,3.83
2017-12-13T16:40:59.552Z,3.55
2017-12-13T16:43:29.561Z,3.15
2017-12-13T16:46:14.253Z,3.72
2017-12-13T16:48:42.504Z,3.60
2017-12-13T16:51:19.449Z,4.30
2017-12-13T16:53:48.287Z,4.60
2017-12-13T16:56:15.868Z,4.20
2017-12-13T16:58:55.237Z,5.15
2017-12-13T17:01:24.301Z,4.25
2017-12-13T17:03:58.319Z,5.93
2017-12-13T17:06:29.050Z,4.68
2017-12-13T17:08:57.007Z,4.50
2017-12-13T17:11:24.164Z,5.18
2017-12-13T17:13:59.839Z,5.82
2017-12-13T17:16:32.203Z,6.90
2017-12-13T17:19:00.052Z,5.07
2017-12-13T17:21:31.110Z,4.78
2017-12-13T17:24:00.005Z,4.25
2017-12-13T17:26:33.193Z,4.65
2017-12-13T17:29:08.817Z,5.68
2017-12-13T17:31:38.480Z,5.22
2017-12-13T17:34:05.586Z,3.95
2017-12-13T17:36:44.568Z,4.05
2017-12-13T17:39:21.806Z,5.53
2017-12-13T17:41:57.435Z,3.50
2017-12-13T17:44:25.855Z,4.32
2017-12-13T17:47:02.712Z,4.68
2017-12-13T17:49:30.297Z,4.10
2017-12-13T17:51:57.583Z,4.30
2017-12-13T17:54:25.380Z,4.78
2017-12-13T17:56:53.281Z,5.05
2017-12-13T17:59:20.428Z,4.57
2017-12-13T18:01:47.513Z,3.50
2017-12-13T18:04:14.505Z,4.50
2017-12-13T18:06:41.608Z,4.50
2017-12-13T18:09:08.652Z,4.43
2017-12-13T18:11:35.771Z,5.18
2017-12-13T18:14:02.991Z,6.28
2017-12-13T18:16:30.203Z,4.82
2017-12-13T18:18:57.188Z,5.10
2017-12-13T18:21:24.212Z,5.10
2017-12-13T18:23:51.436Z,4.80
2017-12-13T18:26:19.332Z,3.58
2017-12-13T18:28:47.363Z,4.47
2017-12-13T18:31:14.789Z,3.60
2017-12-13T18:33:42.285Z,3.60
2017-12-13T18:36:09.589Z,4.90
2017-12-13T18:38:37.261Z,3.53
2017-12-13T18:41:04.827Z,3.90
2017-12-13T18:43:32.143Z,2.95
2017-12-13T18:46:01.368Z,2.80
2017-12-13T18:48:28.657Z,2.60
2017-12-13T18:50:56.147Z,2.70
2017-12-13T18:53:23.540Z,3.12
2017-12-13T18:55:50.488Z,3.22
2017-12-13T18:58:17.629Z,3.15
2017-12-13T19:00:44.692Z,2.80
2017-12-13T19:03:11.794Z,2.65
2017-12-13T19:05:39.941Z,3.17
2017-12-13T19:08:07.043Z,4.25
2017-12-13T19:10:34.123Z,3.30
2017-12-13T19:13:01.104Z,2.97
2017-12-13T19:15:28.070Z,2.67
2017-12-13T19:17:55.645Z,2.65
2017-12-13T19:20:22.721Z,2.60
2017-12-13T19:22:50.123Z,2.97
2017-12-13T19:25:17.181Z,3.05
2017-12-13T19:27:44.284Z,2.70
2017-12-13T19:30:12.342Z,3.15
2017-12-13T19:32:40.291Z,3.75
2017-12-13T19:35:07.617Z,4.62
2017-12-13T19:37:35.582Z,3.42
2017-12-13T19:40:03.782Z,4.15
2017-12-13T19:42:31.330Z,3.80
2017-12-13T19:44:58.655Z,3.90
2017-12-13T19:47:26.417Z,4.57
2017-12-13T19:49:53.526Z,3.95
2017-12-13T19:52:20.439Z,4.22
2017-12-13T19:54:47.524Z,3.72
2017-12-13T19:57:14.477Z,3.95
2017-12-13T19:59:41.475Z,3.75
2017-12-13T20:02:09.291Z,4.53
2017-12-13T20:04:36.221Z,3.58
2017-12-13T20:07:03.554Z,3.65
2017-12-13T20:09:30.595Z,2.92
2017-12-13T20:11:57.631Z,3.65
2017-12-13T20:14:24.487Z,3.50
2017-12-13T20:16:51.343Z,3.40
2017-12-13T20:19:18.273Z,3.40
2017-12-13T20:21:45.134Z,3.50
2017-12-13T20:24:12.852Z,3.35
2017-12-13T20:26:39.708Z,3.67
2017-12-13T20:29:06.669Z,3.87
2017-12-13T20:31:33.612Z,4.82
2017-12-13T20:34:00.566Z,4.25
2017-12-13T20:36:27.488Z,3.45
2017-12-13T20:38:54.495Z,4.28
2017-12-13T20:41:21.349Z,4.18
2017-12-13T20:43:48.236Z,3.97
2017-12-13T20:46:15.172Z,3.08
2017-12-13T20:48:42.091Z,4.50
2017-12-13T20:51:08.960Z,3.47
2017-12-13T20:53:35.919Z,3.20
2017-12-13T20:56:02.807Z,2.87
2017-12-13T20:58:30.419Z,2.92
2017-12-13T21:00:57.360Z,3.00
2017-12-13T21:03:24.255Z,3.35
2017-12-13T21:05:51.964Z,5.35
2017-12-13T21:08:18.917Z,2.92
2017-12-13T21:10:45.810Z,2.50
2017-12-13T21:13:12.772Z,2.97
2017-12-13T21:15:40.124Z,2.65
2017-12-13T21:18:07.096Z,2.80
2017-12-13T21:20:33.985Z,4.40
2017-12-13T21:23:00.906Z,2.70
2017-12-13T21:25:27.879Z,3.50
2017-12-13T21:27:54.752Z,3.50
2017-12-13T21:30:21.642Z,3.50
2017-12-13T21:32:49.044Z,3.47
2017-12-13T21:35:16.989Z,3.72
2017-12-13T21:37:44.383Z,3.10
2017-12-13T21:40:12.493Z,4.12
2017-12-13T21:42:40.601Z,3.15
2017-12-13T21:45:07.600Z,3.83
2017-12-13T21:47:34.628Z,3.05
2017-12-13T21:50:12.170Z,3.80
2017-12-13T21:52:39.848Z,3.25
2017-12-13T21:55:08.951Z,3.28
2017-12-13T21:57:37.783Z,3.30
2017-12-13T22:00:05.444Z,3.25
2017-12-13T22:02:37.950Z,3.42
2017-12-13T22:05:16.928Z,4.30
2017-12-13T22:07:55.624Z,2.72
2017-12-13T22:10:35.553Z,3.60
2017-12-13T22:13:14.786Z,2.90
2017-12-13T22:15:52.219Z,3.35
2017-12-13T22:18:19.468Z,3.33
2017-12-13T22:20:50.135Z,3.47
2017-12-13T22:23:28.868Z,3.33
2017-12-13T22:25:56.972Z,4.60
2017-12-13T22:28:25.310Z,3.50
2017-12-13T22:30:54.465Z,2.83
2017-12-13T22:33:24.590Z,3.72
2017-12-13T22:35:51.904Z,2.50
2017-12-13T22:38:21.124Z,2.35
2017-12-13T22:40:48.290Z,2.20
2017-12-13T22:43:15.785Z,2.37
2017-12-13T22:45:47.155Z,1.92
2017-12-13T22:48:14.282Z,2.30
2017-12-13T22:50:41.733Z,2.85
2017-12-13T22:53:12.944Z,2.47
2017-12-13T22:55:40.106Z,3.60
2017-12-13T22:58:07.305Z,1.75
2017-12-13T23:00:48.450Z,2.50
2017-12-13T23:03:16.792Z,2.65
2017-12-13T23:05:45.458Z,1.95
2017-12-13T23:08:14.395Z,2.20
2017-12-13T23:10:42.805Z,2.67
2017-12-13T23:13:09.864Z,4.00
2017-12-13T23:15:39.276Z,2.10
2017-12-13T23:18:15.846Z,2.60
2017-12-13T23:20:58.933Z,2.40
2017-12-13T23:23:27.016Z,2.67
2017-12-13T23:25:55.506Z,2.95
2017-12-13T23:28:24.478Z,2.85
2017-12-13T23:30:52.181Z,5.28
2017-12-13T23:33:20.732Z,3.28
2017-12-13T23:35:51.562Z,3.40
2017-12-13T23:38:18.653Z,2.90
2017-12-13T23:40:46.584Z,3.45
2017-12-13T23:43:13.748Z,3.72
2017-12-13T23:45:42.250Z,4.70
2017-12-13T23:48:12.643Z,3.95
2017-12-13T23:50:39.702Z,4.18
2017-12-13T23:53:07.770Z,3.35
2017-12-13T23:55:35.115Z,3.08
2017-12-13T23:58:02.361Z,3.30
